createdAt,value
2023-05-21T00:01:42.765Z,100.00
2023-05-21T00:05:50.014Z,100.00
2023-05-21T00:09:52.921Z,100.00
2023-05-21T00:13:55.091Z,100.00
2023-05-21T00:17:57.184Z,100.00
2023-05-21T00:22:02.230Z,100.00
2023-05-21T00:26:04.354Z,100.00
2023-05-21T00:30:07.191Z,100.00
2023-05-21T00:34:09.228Z,100.00
2023-05-21T00:38:11.261Z,100.00
2023-05-21T00:42:18.075Z,100.00
2023-05-21T00:46:21.307Z,100.00
2023-05-21T00:50:23.646Z,100.00
2023-05-21T00:54:25.939Z,100.00
2023-05-21T00:58:29.223Z,100.00
2023-05-21T01:02:34.839Z,100.00
2023-05-21T01:06:37.765Z,100.00
2023-05-21T01:10:39.814Z,100.00
2023-05-21T01:14:42.584Z,100.00
2023-05-21T01:18:45.331Z,100.00
2023-05-21T01:22:55.293Z,100.00
2023-05-21T01:27:01.115Z,100.00
2023-05-21T01:31:16.810Z,100.00
2023-05-21T01:35:27.800Z,100.00
2023-05-21T01:39:37.547Z,100.00
2023-05-21T01:43:42.571Z,100.00
2023-05-21T01:47:50.141Z,100.00
2023-05-21T01:51:52.417Z,100.00
2023-05-21T01:55:54.696Z,100.00
2023-05-21T01:59:57.883Z,100.00
2023-05-21T02:04:00.244Z,100.00
2023-05-21T02:08:02.452Z,100.00
2023-05-21T02:12:04.767Z,100.00
2023-05-21T02:16:10.184Z,100.00
2023-05-21T02:20:13.869Z,100.00
2023-05-21T02:24:16.750Z,100.00
2023-05-21T02:28:18.849Z,100.00
2023-05-21T02:32:21.657Z,100.00
2023-05-21T02:36:25.320Z,100.00
2023-05-21T02:40:27.602Z,100.00
2023-05-21T02:44:30.060Z,100.00
2023-05-21T02:48:32.297Z,100.00
2023-05-21T02:52:34.703Z,100.00
2023-05-21T02:56:36.916Z,100.00
2023-05-21T03:00:39.256Z,100.00
2023-05-21T03:04:46.368Z,100.00
2023-05-21T03:08:48.791Z,100.00
2023-05-21T03:12:51.006Z,100.00
2023-05-21T03:16:53.331Z,100.00
2023-05-21T03:20:55.640Z,100.00
2023-05-21T03:24:58.252Z,100.00
2023-05-21T03:29:01.514Z,100.00
2023-05-21T03:33:04.991Z,100.00
2023-05-21T03:37:06.804Z,100.00
2023-05-21T03:41:10.804Z,100.00
2023-05-21T03:45:13.608Z,100.00
2023-05-21T03:49:21.251Z,100.00
2023-05-21T03:53:27.017Z,100.00
2023-05-21T03:57:29.359Z,100.00
2023-05-21T04:01:33.009Z,100.00
2023-05-21T04:05:35.446Z,100.00
2023-05-21T04:09:37.693Z,100.00
2023-05-21T04:13:39.840Z,100.00
2023-05-21T04:17:41.913Z,100.00
2023-05-21T04:21:45.047Z,100.00
2023-05-21T04:25:51.023Z,100.00
2023-05-21T04:29:58.032Z,100.00
2023-05-21T04:34:00.286Z,100.00
2023-05-21T04:38:04.095Z,100.00
2023-05-21T04:42:07.020Z,100.00
2023-05-21T04:46:09.112Z,100.00
2023-05-21T04:50:11.977Z,100.00
2023-05-21T04:54:14.068Z,100.00
2023-05-21T04:58:18.342Z,100.00
2023-05-21T05:02:21.355Z,100.00
2023-05-21T05:06:25.809Z,100.00
2023-05-21T05:10:27.830Z,100.00
2023-05-21T05:14:31.122Z,100.00
2023-05-21T05:18:34.364Z,100.00
2023-05-21T05:22:36.778Z,100.00
2023-05-21T05:26:38.864Z,100.00
2023-05-21T05:30:41.057Z,100.00
2023-05-21T05:34:53.404Z,100.00
2023-05-21T05:38:55.754Z,100.00
2023-05-21T05:42:57.908Z,100.00
2023-05-21T05:47:00.168Z,100.00
2023-05-21T05:51:03.257Z,100.00
2023-05-21T05:55:08.947Z,100.00
2023-05-21T05:59:11.223Z,100.00
2023-05-21T06:03:14.586Z,100.00
2023-05-21T06:07:17.868Z,100.00
2023-05-21T06:11:20.043Z,100.00
2023-05-21T06:15:22.346Z,100.00
2023-05-21T06:19:24.579Z,100.00
2023-05-21T06:23:27.254Z,100.00
2023-05-21T06:27:30.740Z,100.00
2023-05-21T06:31:34.292Z,100.00
2023-05-21T06:35:37.491Z,100.00
2023-05-21T06:39:39.985Z,100.00
2023-05-21T06:43:42.083Z,100.00
2023-05-21T06:48:02.779Z,100.00
2023-05-21T06:52:05.515Z,100.00
2023-05-21T06:56:08.283Z,100.00
2023-05-21T07:00:12.511Z,100.00
2023-05-21T07:04:16.047Z,100.00
2023-05-21T07:08:22.709Z,100.00
2023-05-21T07:12:25.446Z,90.87
2023-05-21T07:16:27.609Z,92.78
2023-05-21T07:20:30.020Z,74.70
2023-05-21T07:24:35.338Z,88.16
2023-05-21T07:28:37.542Z,99.73
2023-05-21T07:32:40.059Z,93.27
2023-05-21T07:36:41.809Z,74.62
2023-05-21T07:40:44.273Z,91.63
2023-05-21T07:44:47.417Z,78.44
2023-05-21T07:48:50.119Z,82.27
2023-05-21T07:52:52.234Z,68.98
2023-05-21T07:56:55.442Z,71.99
2023-05-21T08:01:20.134Z,86.25
2023-05-21T08:05:24.380Z,73.44
2023-05-21T08:09:26.750Z,74.29
2023-05-21T08:13:29.001Z,71.89
2023-05-21T08:17:31.942Z,67.21
2023-05-21T08:21:34.599Z,72.06
2023-05-21T08:25:37.099Z,71.83
2023-05-21T08:29:40.400Z,77.25
2023-05-21T08:33:51.588Z,76.63
2023-05-21T08:37:56.832Z,67.09
2023-05-21T08:42:39.505Z,54.93
2023-05-21T08:46:45.501Z,62.50
2023-05-21T08:50:48.027Z,65.71
2023-05-21T08:54:56.823Z,57.62
2023-05-21T08:58:59.553Z,55.51
2023-05-21T09:03:10.497Z,58.30
2023-05-21T09:07:15.669Z,63.49
2023-05-21T09:11:37.282Z,62.88
2023-05-21T09:15:39.845Z,62.56
2023-05-21T09:20:09.664Z,62.35
2023-05-21T09:24:12.421Z,65.48
2023-05-21T09:28:17.093Z,62.61
2023-05-21T09:32:19.259Z,53.48
2023-05-21T09:36:21.999Z,62.64
2023-05-21T09:40:24.725Z,58.67
2023-05-21T09:44:27.084Z,56.53
2023-05-21T09:48:36.552Z,53.70
2023-05-21T09:52:42.142Z,60.46
2023-05-21T09:56:44.552Z,68.73
2023-05-21T10:00:46.821Z,58.58
2023-05-21T10:04:50.538Z,60.29
2023-05-21T10:08:56.747Z,61.46
2023-05-21T10:13:01.395Z,59.85
2023-05-21T10:17:06.354Z,59.60
2023-05-21T10:21:08.850Z,54.50
2023-05-21T10:25:14.329Z,54.09
2023-05-21T10:29:19.636Z,65.06
2023-05-21T10:33:24.970Z,51.86
2023-05-21T10:37:27.650Z,54.56
2023-05-21T10:41:41.171Z,54.82
2023-05-21T10:46:00.273Z,57.20
2023-05-21T10:50:31.170Z,60.97
2023-05-21T10:54:52.953Z,59.29
2023-05-21T10:59:15.391Z,47.88
2023-05-21T11:03:17.751Z,48.33
2023-05-21T11:07:57.284Z,50.65
2023-05-21T11:12:00.985Z,60.79
2023-05-21T11:16:08.129Z,54.71
2023-05-21T11:20:13.760Z,49.60
2023-05-21T11:24:20.155Z,50.65
2023-05-21T11:28:34.247Z,44.64
2023-05-21T11:32:40.518Z,57.59
2023-05-21T11:36:50.149Z,53.10
2023-05-21T11:40:56.365Z,55.48
2023-05-21T11:45:00.231Z,50.38
2023-05-21T11:49:03.822Z,53.51
2023-05-21T11:53:07.638Z,52.93
2023-05-21T11:57:10.563Z,56.13
2023-05-21T12:01:24.527Z,50.55
2023-05-21T12:05:27.196Z,45.72
2023-05-21T12:09:29.493Z,46.56
2023-05-21T12:13:32.101Z,46.63
2023-05-21T12:17:34.316Z,43.96
2023-05-21T12:21:36.544Z,52.15
2023-05-21T12:25:38.885Z,57.35
2023-05-21T12:29:46.097Z,45.06
2023-05-21T12:33:50.118Z,45.92
2023-05-21T12:37:52.512Z,47.28
2023-05-21T12:41:55.010Z,49.47
2023-05-21T12:45:57.254Z,48.30
2023-05-21T12:50:01.907Z,48.08
2023-05-21T12:54:04.368Z,50.29
2023-05-21T12:58:09.107Z,47.21
2023-05-21T13:02:16.228Z,45.67
2023-05-21T13:06:18.555Z,46.46
2023-05-21T13:10:21.604Z,44.83
2023-05-21T13:14:23.676Z,44.16
2023-05-21T13:18:26.265Z,50.03
2023-05-21T13:22:28.455Z,47.73
2023-05-21T13:26:30.476Z,44.00
2023-05-21T13:30:35.917Z,46.37
2023-05-21T13:34:38.056Z,44.54
2023-05-21T13:38:40.197Z,40.86
2023-05-21T13:42:44.072Z,41.68
2023-05-21T13:46:46.365Z,42.93
2023-05-21T13:50:48.613Z,41.96
2023-05-21T13:54:50.955Z,43.14
2023-05-21T13:58:52.994Z,41.26
2023-05-21T14:02:55.416Z,39.27
2023-05-21T14:06:57.716Z,42.15
2023-05-21T14:11:00.338Z,41.70
2023-05-21T14:15:03.124Z,42.93
2023-05-21T14:19:05.892Z,43.71
2023-05-21T14:23:09.420Z,46.32
2023-05-21T14:27:13.894Z,42.14
2023-05-21T14:31:17.280Z,44.29
2023-05-21T14:35:19.402Z,43.09
2023-05-21T14:39:21.530Z,40.46
2023-05-21T14:43:23.844Z,41.51
2023-05-21T14:47:26.117Z,43.86
2023-05-21T14:51:28.351Z,40.81
2023-05-21T14:55:30.857Z,40.53
2023-05-21T14:59:33.056Z,46.84
2023-05-21T15:03:35.263Z,40.05
2023-05-21T15:07:37.725Z,38.98
2023-05-21T15:11:40.178Z,38.87
2023-05-21T15:15:42.682Z,42.71
2023-05-21T15:19:44.905Z,40.21
2023-05-21T15:23:47.006Z,42.54
2023-05-21T15:27:50.575Z,40.71
2023-05-21T15:31:52.953Z,40.11
2023-05-21T15:35:55.122Z,37.97
2023-05-21T15:39:57.323Z,39.58
2023-05-21T15:43:59.547Z,39.01
2023-05-21T15:48:01.655Z,40.36
2023-05-21T15:52:03.978Z,41.23
2023-05-21T15:56:06.452Z,39.20
2023-05-21T16:00:09.950Z,43.79
2023-05-21T16:04:12.347Z,45.82
2023-05-21T16:08:14.736Z,47.03
2023-05-21T16:12:17.158Z,47.67
2023-05-21T16:16:21.762Z,44.32
2023-05-21T16:20:25.235Z,43.71
2023-05-21T16:24:27.489Z,45.67
2023-05-21T16:28:30.339Z,46.78
2023-05-21T16:32:33.056Z,50.69
2023-05-21T16:36:37.434Z,50.18
2023-05-21T16:40:40.402Z,47.53
2023-05-21T16:44:42.524Z,47.08
2023-05-21T16:48:44.667Z,49.97
2023-05-21T16:52:46.914Z,47.34
2023-05-21T16:56:49.076Z,48.66
2023-05-21T17:00:51.343Z,47.80
2023-05-21T17:04:53.675Z,50.52
2023-05-21T17:08:56.036Z,49.27
2023-05-21T17:12:59.957Z,52.33
2023-05-21T17:17:06.888Z,51.08
2023-05-21T17:21:09.618Z,52.83
2023-05-21T17:25:11.927Z,53.65
2023-05-21T17:29:14.029Z,53.43
2023-05-21T17:33:16.226Z,54.78
2023-05-21T17:37:18.383Z,57.91
2023-05-21T17:41:21.781Z,60.60
2023-05-21T17:45:23.826Z,63.13
2023-05-21T17:49:25.979Z,64.08
2023-05-21T17:53:28.161Z,70.21
2023-05-21T17:57:30.249Z,73.48
2023-05-21T18:01:33.683Z,95.78
2023-05-21T18:05:36.330Z,97.77
2023-05-21T18:09:39.228Z,100.00
2023-05-21T18:13:41.346Z,100.00
2023-05-21T18:17:43.810Z,100.00
2023-05-21T18:21:48.889Z,100.00
2023-05-21T18:25:50.997Z,100.00
2023-05-21T18:29:53.193Z,100.00
2023-05-21T18:33:55.350Z,100.00
2023-05-21T18:37:57.987Z,100.00
2023-05-21T18:42:12.252Z,100.00
2023-05-21T18:46:16.007Z,100.00
2023-05-21T18:50:19.446Z,100.00
2023-05-21T18:54:21.625Z,100.00
2023-05-21T18:58:23.743Z,100.00
2023-05-21T19:02:26.988Z,100.00
2023-05-21T19:06:29.105Z,100.00
2023-05-21T19:10:32.548Z,100.00
2023-05-21T19:14:35.123Z,100.00
2023-05-21T19:18:37.271Z,100.00
2023-05-21T19:22:39.528Z,100.00
2023-05-21T19:26:41.628Z,100.00
2023-05-21T19:30:44.263Z,100.00
2023-05-21T19:34:46.808Z,100.00
2023-05-21T19:38:50.011Z,100.00
2023-05-21T19:42:52.198Z,100.00
2023-05-21T19:46:54.505Z,100.00
2023-05-21T19:50:57.151Z,100.00
2023-05-21T19:55:04.612Z,100.00
2023-05-21T19:59:06.907Z,100.00
2023-05-21T20:03:09.818Z,100.00
2023-05-21T20:07:13.571Z,100.00
2023-05-21T20:11:15.790Z,100.00
2023-05-21T20:15:18.388Z,100.00
2023-05-21T20:19:22.895Z,100.00
2023-05-21T20:23:25.079Z,100.00
2023-05-21T20:27:27.978Z,100.00
2023-05-21T20:31:30.426Z,100.00
2023-05-21T20:35:32.523Z,100.00
2023-05-21T20:39:37.220Z,100.00
2023-05-21T20:43:39.592Z,100.00
2023-05-21T20:47:42.701Z,100.00
2023-05-21T20:51:45.069Z,100.00
2023-05-21T20:55:47.350Z,100.00
2023-05-21T20:59:52.213Z,100.00
2023-05-21T21:03:54.340Z,100.00
2023-05-21T21:07:56.435Z,100.00
2023-05-21T21:12:06.309Z,100.00
2023-05-21T21:16:11.370Z,100.00
2023-05-21T21:20:13.788Z,100.00
2023-05-21T21:24:15.946Z,100.00
2023-05-21T21:28:18.859Z,100.00
2023-05-21T21:32:21.131Z,100.00
2023-05-21T21:36:24.408Z,100.00
2023-05-21T21:40:27.355Z,100.00
2023-05-21T21:44:29.499Z,100.00
2023-05-21T21:48:31.664Z,100.00
2023-05-21T21:52:33.681Z,100.00
2023-05-21T21:56:36.111Z,100.00
2023-05-21T22:00:38.234Z,100.00
2023-05-21T22:04:40.571Z,100.00
2023-05-21T22:08:42.772Z,100.00
2023-05-21T22:12:46.107Z,100.00
2023-05-21T22:16:48.458Z,100.00
2023-05-21T22:20:51.378Z,100.00
2023-05-21T22:24:53.729Z,100.00
2023-05-21T22:28:56.348Z,100.00
2023-05-21T22:32:58.455Z,100.00
2023-05-21T22:37:01.156Z,100.00
2023-05-21T22:41:03.703Z,100.00
2023-05-21T22:45:06.758Z,100.00
2023-05-21T22:49:10.232Z,100.00
2023-05-21T22:53:12.972Z,100.00
2023-05-21T22:57:15.432Z,100.00
2023-05-21T23:01:17.539Z,100.00
2023-05-21T23:05:19.850Z,100.00
2023-05-21T23:09:21.968Z,100.00
2023-05-21T23:13:23.992Z,100.00
2023-05-21T23:17:26.390Z,100.00
2023-05-21T23:21:28.645Z,100.00
2023-05-21T23:25:30.846Z,100.00
2023-05-21T23:29:32.927Z,100.00
2023-05-21T23:33:34.917Z,100.00
2023-05-21T23:37:37.110Z,100.00
2023-05-21T23:41:39.313Z,100.00
2023-05-21T23:45:41.698Z,100.00
2023-05-21T23:49:43.739Z,100.00
2023-05-21T23:53:45.979Z,100.00
2023-05-21T23:57:48.006Z,100.00
